createdAt,value
2022-12-01T00:01:21.856Z,102160.09
2022-12-01T00:03:49.813Z,102151.94
2022-12-01T00:06:19.375Z,102165.53
2022-12-01T00:09:08.217Z,102163.69
2022-12-01T00:11:37.781Z,102155.72
2022-12-01T00:14:06.718Z,102165.63
2022-12-01T00:16:35.356Z,102146.59
2022-12-01T00:19:03.384Z,102153.00
2022-12-01T00:21:31.190Z,102150.19
2022-12-01T00:24:00.453Z,102143.78
2022-12-01T00:26:28.796Z,102147.47
2022-12-01T00:29:00.610Z,102148.25
2022-12-01T00:31:28.629Z,102141.03
2022-12-01T00:33:56.670Z,102146.50
2022-12-01T00:36:25.073Z,102144.66
2022-12-01T00:38:53.924Z,102138.31
2022-12-01T00:41:24.382Z,102144.66
2022-12-01T00:43:52.882Z,102140.19
2022-12-01T00:46:21.029Z,102142.03
2022-12-01T00:48:50.094Z,102140.19
2022-12-01T00:51:18.477Z,102146.59
2022-12-01T00:53:46.586Z,102143.88
2022-12-01T00:56:14.940Z,102149.38
2022-12-01T00:58:44.152Z,102143.88
2022-12-01T01:01:12.051Z,102148.50
2022-12-01T01:03:39.956Z,102149.53
2022-12-01T01:06:09.609Z,102166.72
2022-12-01T01:08:38.051Z,102160.47
2022-12-01T01:11:07.861Z,102162.50
2022-12-01T01:13:36.692Z,102164.34
2022-12-01T01:16:08.455Z,102160.81
2022-12-01T01:18:36.506Z,102161.94
2022-12-01T01:21:06.713Z,102158.31
2022-12-01T01:23:35.281Z,102158.41
2022-12-01T01:26:03.532Z,102166.63
2022-12-01T01:28:31.557Z,102172.94
2022-12-01T01:30:59.601Z,102171.19
2022-12-01T01:33:28.799Z,102164.78
2022-12-01T01:35:59.956Z,102177.44
2022-12-01T01:38:28.081Z,102179.34
2022-12-01T01:40:56.219Z,102178.38
2022-12-01T01:43:41.584Z,102178.31
2022-12-01T01:46:11.266Z,102177.50
2022-12-01T01:48:43.066Z,102184.72
2022-12-01T01:51:14.170Z,102182.00
2022-12-01T01:53:43.085Z,102179.34
2022-12-01T01:56:11.295Z,102178.53
2022-12-01T01:58:41.181Z,102178.47
2022-12-01T02:01:09.593Z,102182.13
2022-12-01T02:03:42.069Z,102183.91
2022-12-01T02:06:11.062Z,102174.03
2022-12-01T02:08:39.022Z,102178.63
2022-12-01T02:11:32.840Z,102189.41
2022-12-01T02:14:09.919Z,102183.19
2022-12-01T02:16:45.605Z,102181.50
2022-12-01T02:19:41.838Z,102177.94
2022-12-01T02:22:23.320Z,102186.13
2022-12-01T02:25:08.582Z,102180.75
2022-12-01T02:28:01.027Z,102178.91
2022-12-01T02:30:40.074Z,102177.38
2022-12-01T02:33:14.648Z,102179.16
2022-12-01T02:35:50.006Z,102171.94
2022-12-01T02:38:26.302Z,102180.97
2022-12-01T02:41:02.046Z,102179.22
2022-12-01T02:43:34.825Z,102172.91
2022-12-01T02:46:11.927Z,102174.72
2022-12-01T02:48:43.012Z,102171.19
2022-12-01T02:51:15.998Z,102165.75
2022-12-01T02:53:44.378Z,102165.94
2022-12-01T02:56:14.651Z,102164.00
2022-12-01T02:58:43.405Z,102169.53
2022-12-01T03:01:25.711Z,102175.84
2022-12-01T03:04:17.286Z,102167.84
2022-12-01T03:06:54.348Z,102172.31
2022-12-01T03:09:31.159Z,102177.69
2022-12-01T03:12:11.637Z,102169.44
2022-12-01T03:14:43.701Z,102170.41
2022-12-01T03:17:19.194Z,102172.25
2022-12-01T03:19:51.236Z,102174.88
2022-12-01T03:22:25.764Z,102172.09
2022-12-01T03:24:56.811Z,102178.34
2022-12-01T03:27:31.472Z,102173.72
2022-12-01T03:30:02.319Z,102173.72
2022-12-01T03:32:36.561Z,102174.59
2022-12-01T03:35:10.933Z,102171.88
2022-12-01T03:37:43.379Z,102174.66
2022-12-01T03:40:17.714Z,102170.25
2022-12-01T03:42:49.048Z,102176.50
2022-12-01T03:45:21.154Z,102177.44
2022-12-01T03:47:50.452Z,102171.19
2022-12-01T03:50:19.196Z,102179.28
2022-12-01T03:52:54.844Z,102168.47
2022-12-01T03:55:27.256Z,102168.66
2022-12-01T03:57:59.655Z,102181.34
2022-12-01T04:00:27.826Z,102177.91
2022-12-01T04:02:58.659Z,102172.31
2022-12-01T04:05:28.283Z,102172.38
2022-12-01T04:07:56.272Z,102176.06
2022-12-01T04:10:24.334Z,102188.69
2022-12-01T04:12:51.766Z,102180.53
2022-12-01T04:15:19.703Z,102180.53
2022-12-01T04:17:47.480Z,102184.16
2022-12-01T04:20:17.257Z,102184.16
2022-12-01T04:22:45.672Z,102182.31
2022-12-01T04:25:13.717Z,102184.06
2022-12-01T04:27:41.904Z,102184.06
2022-12-01T04:30:11.044Z,102180.41
2022-12-01T04:32:40.352Z,102182.25
2022-12-01T04:35:09.724Z,102174.09
2022-12-01T04:37:39.833Z,102178.56
2022-12-01T04:40:09.130Z,102181.34
2022-12-01T04:42:36.881Z,102179.59
2022-12-01T04:45:05.136Z,102180.47
2022-12-01T04:47:32.936Z,102177.81
2022-12-01T04:50:00.769Z,102174.22
2022-12-01T04:52:34.902Z,102172.38
2022-12-01T04:55:04.705Z,102175.09
2022-12-01T04:57:32.460Z,102175.09
2022-12-01T05:00:00.272Z,102174.22
2022-12-01T05:02:28.105Z,102171.50
2022-12-01T05:04:56.025Z,102170.63
2022-12-01T05:07:23.844Z,102167.91
2022-12-01T05:09:52.080Z,102171.50
2022-12-01T05:12:21.359Z,102172.38
2022-12-01T05:14:49.128Z,102177.91
2022-12-01T05:17:17.054Z,102174.22
2022-12-01T05:20:02.908Z,102175.03
2022-12-01T05:22:57.231Z,102171.56
2022-12-01T05:25:18.710Z,102179.78
2022-12-01T05:27:47.872Z,102177.00
2022-12-01T05:30:15.808Z,102183.41
2022-12-01T05:32:43.610Z,102180.78
2022-12-01T05:35:11.471Z,102181.81
2022-12-01T05:37:39.256Z,102180.97
2022-12-01T05:40:08.446Z,102181.88
2022-12-01T05:42:36.234Z,102187.38
2022-12-01T05:45:06.142Z,102184.72
2022-12-01T05:47:33.913Z,102193.84
2022-12-01T05:50:05.575Z,102185.72
2022-12-01T05:52:35.089Z,102195.69
2022-12-01T05:55:02.897Z,102197.53
2022-12-01T05:57:31.181Z,102186.66
2022-12-01T05:59:59.113Z,102184.81
2022-12-01T06:02:28.321Z,102192.03
2022-12-01T06:04:56.121Z,102192.97
2022-12-01T06:07:25.856Z,102185.72
2022-12-01T06:09:54.394Z,102192.03
2022-12-01T06:12:22.305Z,102191.03
2022-12-01T06:14:50.091Z,102200.06
2022-12-01T06:17:17.998Z,102198.19
2022-12-01T06:19:48.280Z,102201.72
2022-12-01T06:22:16.318Z,102207.16
2022-12-01T06:24:44.133Z,102209.81
2022-12-01T06:27:11.984Z,102211.56
2022-12-01T06:29:42.275Z,102210.59
2022-12-01T06:32:10.398Z,102209.63
2022-12-01T06:34:38.204Z,102217.84
2022-12-01T06:37:07.407Z,102210.69
2022-12-01T06:39:35.209Z,102217.94
2022-12-01T06:42:03.063Z,102216.19
2022-12-01T06:44:31.268Z,102218.91
2022-12-01T06:46:59.108Z,102215.44
2022-12-01T06:49:26.960Z,102220.81
2022-12-01T06:51:54.777Z,102220.00
2022-12-01T06:54:23.910Z,102221.81
2022-12-01T06:56:51.892Z,102219.19
2022-12-01T06:59:20.158Z,102220.94
2022-12-01T07:01:48.380Z,102227.34
2022-12-01T07:04:16.158Z,102224.66
2022-12-01T07:06:43.990Z,102224.66
2022-12-01T07:09:11.786Z,102220.06
2022-12-01T07:11:41.070Z,102222.78
2022-12-01T07:14:17.586Z,102224.53
2022-12-01T07:16:45.469Z,102230.06
2022-12-01T07:19:13.234Z,102238.13
2022-12-01T07:21:41.092Z,102226.38
2022-12-01T07:24:09.285Z,102228.16
2022-12-01T07:26:37.178Z,102231.75
2022-12-01T07:29:06.288Z,102229.84
2022-12-01T07:31:34.170Z,102230.78
2022-12-01T07:34:01.985Z,102228.91
2022-12-01T07:36:29.975Z,102228.00
2022-12-01T07:38:58.037Z,102221.63
2022-12-01T07:41:25.854Z,102235.22
2022-12-01T07:43:53.706Z,102242.41
2022-12-01T07:46:25.715Z,102237.88
2022-12-01T07:48:54.414Z,102238.88
2022-12-01T07:51:23.577Z,102246.97
2022-12-01T07:53:52.793Z,102241.59
2022-12-01T07:56:22.491Z,102247.94
2022-12-01T07:58:50.715Z,102248.00
2022-12-01T08:01:21.190Z,102247.03
2022-12-01T08:03:51.839Z,102248.88
2022-12-01T08:06:22.670Z,102242.56
2022-12-01T08:08:51.059Z,102249.88
2022-12-01T08:11:21.103Z,102253.44
2022-12-01T08:13:49.311Z,102254.38
2022-12-01T08:16:19.165Z,102255.25
2022-12-01T08:18:47.334Z,102259.81
2022-12-01T08:21:18.440Z,102257.09
2022-12-01T08:23:46.668Z,102263.41
2022-12-01T08:26:16.226Z,102265.25
2022-12-01T08:28:44.886Z,102263.47
2022-12-01T08:31:16.891Z,102263.47
2022-12-01T08:33:44.787Z,102261.88
2022-12-01T08:36:12.582Z,102264.44
2022-12-01T08:38:44.372Z,102264.38
2022-12-01T08:41:13.172Z,102269.88
2022-12-01T08:43:57.090Z,102273.56
2022-12-01T08:46:26.885Z,102279.13
2022-12-01T08:48:57.815Z,102272.75
2022-12-01T08:51:26.259Z,102280.97
2022-12-01T08:53:57.369Z,102272.75
2022-12-01T08:56:30.079Z,102271.94
2022-12-01T08:58:58.946Z,102270.22
2022-12-01T09:01:26.897Z,102274.72
2022-12-01T09:04:06.686Z,102272.88
2022-12-01T09:06:38.668Z,102272.94
2022-12-01T09:09:08.306Z,102276.53
2022-12-01T09:11:38.324Z,102279.25
2022-12-01T09:14:06.145Z,102280.22
2022-12-01T09:16:34.172Z,102282.16
2022-12-01T09:19:02.365Z,102285.88
2022-12-01T09:21:31.965Z,102284.94
2022-12-01T09:24:00.317Z,102285.00
2022-12-01T09:26:29.679Z,102288.59
2022-12-01T09:28:59.330Z,102294.09
2022-12-01T09:31:27.494Z,102291.38
2022-12-01T09:33:56.730Z,102287.72
2022-12-01T09:36:25.298Z,102276.84
2022-12-01T09:38:53.359Z,102276.84
2022-12-01T09:41:25.454Z,102288.59
2022-12-01T09:44:00.374Z,102275.00
2022-12-01T09:46:34.143Z,102284.03
2022-12-01T09:49:04.484Z,102279.50
2022-12-01T09:51:36.227Z,102283.03
2022-12-01T09:54:04.660Z,102278.53
2022-12-01T09:56:40.751Z,102276.59
2022-12-01T09:59:22.501Z,102281.09
2022-12-01T10:01:54.692Z,102272.06
2022-12-01T10:04:27.883Z,102269.44
2022-12-01T10:07:00.124Z,102272.00
2022-12-01T10:09:36.053Z,102268.41
2022-12-01T10:12:13.332Z,102271.88
2022-12-01T10:14:45.109Z,102270.03
2022-12-01T10:17:23.357Z,102272.59
2022-12-01T10:19:59.875Z,102262.59
2022-12-01T10:22:46.487Z,102271.63
2022-12-01T10:25:22.080Z,102268.03
2022-12-01T10:28:06.797Z,102267.97
2022-12-01T10:30:43.154Z,102274.28
2022-12-01T10:33:23.440Z,102266.13
2022-12-01T10:35:51.808Z,102266.19
2022-12-01T10:38:26.843Z,102266.06
2022-12-01T10:40:58.084Z,102265.19
2022-12-01T10:43:32.791Z,102264.22
2022-12-01T10:46:20.727Z,102258.78
2022-12-01T10:48:54.860Z,102259.75
2022-12-01T10:51:23.672Z,102255.31
2022-12-01T10:53:58.027Z,102250.84
2022-12-01T10:56:26.074Z,102255.38
2022-12-01T10:58:59.254Z,102253.66
2022-12-01T11:01:31.983Z,102255.50
2022-12-01T11:04:06.214Z,102253.84
2022-12-01T11:06:38.571Z,102253.78
2022-12-01T11:09:09.074Z,102254.81
2022-12-01T11:11:38.780Z,102250.25
2022-12-01T11:14:17.358Z,102249.38
2022-12-01T11:16:48.626Z,102247.53
2022-12-01T11:19:30.828Z,102245.69
2022-12-01T11:22:00.953Z,102252.16
2022-12-01T11:24:41.568Z,102252.09
2022-12-01T11:27:17.786Z,102252.97
2022-12-01T11:29:49.328Z,102249.59
2022-12-01T11:32:22.786Z,102246.00
2022-12-01T11:34:54.404Z,102242.41
2022-12-01T11:37:28.280Z,102243.34
2022-12-01T11:39:56.587Z,102245.19
2022-12-01T11:42:27.496Z,102251.50
2022-12-01T11:44:58.344Z,102246.94
2022-12-01T11:47:28.959Z,102251.44
2022-12-01T11:49:58.630Z,102241.50
2022-12-01T11:52:31.982Z,102243.22
2022-12-01T11:57:54.230Z,102244.09
2022-12-01T12:00:24.435Z,102242.25
2022-12-01T12:03:20.616Z,102235.84
2022-12-01T12:06:39.539Z,102232.19
2022-12-01T12:09:24.805Z,102234.81
2022-12-01T12:12:07.673Z,102232.88
2022-12-01T12:14:48.536Z,102232.94
2022-12-01T12:17:28.050Z,102239.00
2022-12-01T12:20:20.346Z,102234.47
2022-12-01T12:23:00.028Z,102237.25
2022-12-01T12:25:33.523Z,102228.16
2022-12-01T12:28:18.892Z,102223.53
2022-12-01T12:30:55.747Z,102220.88
2022-12-01T12:33:49.129Z,102222.72
2022-12-01T12:36:26.925Z,102217.28
2022-12-01T12:39:12.178Z,102219.03
2022-12-01T12:41:49.940Z,102216.31
2022-12-01T12:44:42.639Z,102210.88
2022-12-01T12:47:26.604Z,102210.06
2022-12-01T12:50:02.724Z,102210.94
2022-12-01T12:52:36.183Z,102211.84
2022-12-01T12:55:15.449Z,102200.97
2022-12-01T12:57:47.603Z,102203.75
2022-12-01T13:00:18.063Z,102201.13
2022-12-01T13:02:49.648Z,102203.69
2022-12-01T13:05:22.336Z,102198.19
2022-12-01T13:07:57.250Z,102203.63
2022-12-01T13:10:33.566Z,102193.56
2022-12-01T13:13:13.896Z,102195.31
2022-12-01T13:15:46.064Z,102194.44
2022-12-01T13:18:27.470Z,102183.50
2022-12-01T13:20:56.795Z,102186.22
2022-12-01T13:23:27.267Z,102185.16
2022-12-01T13:25:58.868Z,102184.28
2022-12-01T13:28:28.995Z,102186.13
2022-12-01T13:31:03.301Z,102183.34
2022-12-01T13:33:32.667Z,102177.00
2022-12-01T13:36:38.011Z,102178.78
2022-12-01T13:39:01.542Z,102174.22
2022-12-01T13:41:33.009Z,102176.00
2022-12-01T13:44:04.489Z,102176.88
2022-12-01T13:46:51.538Z,102174.28
2022-12-01T13:49:37.064Z,102173.34
2022-12-01T13:52:31.304Z,102173.34
2022-12-01T13:55:25.186Z,102169.81
2022-12-01T13:58:07.655Z,102175.53
2022-12-01T14:00:36.200Z,102173.66
2022-12-01T14:03:33.784Z,102172.69
2022-12-01T14:06:09.831Z,102178.06
2022-12-01T14:08:45.626Z,102173.78
2022-12-01T14:11:24.632Z,102172.84
2022-12-01T14:13:58.836Z,102173.00
2022-12-01T14:16:46.153Z,102173.06
2022-12-01T14:19:29.129Z,102172.91
2022-12-01T14:22:01.445Z,102180.28
2022-12-01T14:24:34.631Z,102173.94
2022-12-01T14:27:05.635Z,102173.94
2022-12-01T14:29:35.169Z,102175.72
2022-12-01T14:32:22.416Z,102171.22
2022-12-01T14:34:56.969Z,102172.19
2022-12-01T14:37:28.739Z,102169.59
2022-12-01T14:39:59.587Z,102170.41
2022-12-01T14:42:56.133Z,102163.28
2022-12-01T14:45:31.899Z,102162.56
2022-12-01T14:48:04.278Z,102168.00
2022-12-01T14:50:46.188Z,102159.91
2022-12-01T14:53:23.546Z,102162.69
2022-12-01T14:55:57.280Z,102159.97
2022-12-01T14:58:28.981Z,102161.88
2022-12-01T15:01:04.815Z,102162.78
2022-12-01T15:03:37.287Z,102165.47
2022-12-01T15:06:05.662Z,102165.66
2022-12-01T15:08:53.275Z,102171.94
2022-12-01T15:11:26.513Z,102172.81
2022-12-01T15:13:56.876Z,102171.88
2022-12-01T15:16:27.270Z,102176.53
2022-12-01T15:18:55.340Z,102175.63
2022-12-01T15:21:26.274Z,102171.09
2022-12-01T15:23:59.455Z,102165.56
2022-12-01T15:26:31.520Z,102176.41
2022-12-01T15:29:15.669Z,102171.88
2022-12-01T15:31:44.936Z,102170.97
2022-12-01T15:34:18.300Z,102175.53
2022-12-01T15:36:46.721Z,102176.34
2022-12-01T15:39:20.041Z,102179.88
2022-12-01T15:41:53.904Z,102184.31
2022-12-01T15:44:28.322Z,102180.69
2022-12-01T15:46:56.624Z,102179.88
2022-12-01T15:49:30.079Z,102193.34
2022-12-01T15:52:07.638Z,102197.00
2022-12-01T15:54:38.061Z,102197.97
2022-12-01T15:57:07.043Z,102199.78
2022-12-01T15:59:41.001Z,102203.34
2022-12-01T16:02:25.317Z,102212.38
2022-12-01T16:05:02.584Z,102213.25
2022-12-01T16:08:10.840Z,102200.50
2022-12-01T16:10:33.625Z,102206.06
2022-12-01T16:13:45.567Z,102204.28
2022-12-01T16:16:34.437Z,102196.25
2022-12-01T16:19:04.148Z,102199.03
2022-12-01T16:21:43.843Z,102199.03
2022-12-01T16:24:16.341Z,102198.16
2022-12-01T16:26:50.019Z,102193.78
2022-12-01T16:29:20.981Z,102190.97
2022-12-01T16:32:19.319Z,102191.06
2022-12-01T16:34:46.321Z,102182.09
2022-12-01T16:37:14.845Z,102177.53
2022-12-01T16:39:42.857Z,102182.91
2022-12-01T16:42:14.008Z,102180.09
2022-12-01T16:44:42.974Z,102176.59
2022-12-01T16:47:17.173Z,102175.47
2022-12-01T16:49:45.675Z,102180.09
2022-12-01T16:52:45.001Z,102182.75
2022-12-01T16:55:03.433Z,102184.50
2022-12-01T16:57:31.494Z,102194.44
2022-12-01T16:59:59.418Z,102188.94
2022-12-01T17:02:28.732Z,102197.06
2022-12-01T17:04:56.758Z,102193.47
2022-12-01T17:07:24.609Z,102192.53
2022-12-01T17:09:52.426Z,102197.00
2022-12-01T17:12:25.166Z,102197.97
2022-12-01T17:14:53.057Z,102195.38
2022-12-01T17:17:20.937Z,102198.97
2022-12-01T17:19:52.611Z,102188.94
2022-12-01T17:22:21.180Z,102193.47
2022-12-01T17:24:50.452Z,102200.81
2022-12-01T17:27:18.509Z,102200.81
2022-12-01T17:29:46.743Z,102199.94
2022-12-01T17:32:14.984Z,102206.25
2022-12-01T17:34:42.911Z,102198.09
2022-12-01T17:37:16.139Z,102199.88
2022-12-01T17:39:47.106Z,102203.47
2022-12-01T17:42:14.985Z,102198.97
2022-12-01T17:44:42.875Z,102207.94
2022-12-01T17:47:11.400Z,102205.22
2022-12-01T17:49:40.746Z,102208.91
2022-12-01T17:52:08.900Z,102208.84
2022-12-01T17:54:38.302Z,102207.94
2022-12-01T17:57:07.365Z,102203.47
2022-12-01T17:59:36.639Z,102201.63
2022-12-01T18:02:05.323Z,102205.28
2022-12-01T18:04:34.115Z,102201.69
2022-12-01T18:07:01.980Z,102208.16
2022-12-01T18:09:32.348Z,102213.59
2022-12-01T18:12:01.979Z,102204.53
2022-12-01T18:14:34.548Z,102210.97
2022-12-01T18:17:02.426Z,102211.09
2022-12-01T18:19:30.243Z,102211.97
2022-12-01T18:21:58.165Z,102213.88
2022-12-01T18:24:26.184Z,102213.00
2022-12-01T18:26:56.522Z,102212.03
2022-12-01T18:29:28.814Z,102214.81
2022-12-01T18:31:58.237Z,102214.09
2022-12-01T18:34:29.388Z,102209.47
2022-12-01T18:36:57.348Z,102212.28
2022-12-01T18:39:25.236Z,102211.31
2022-12-01T18:41:53.150Z,102205.00
2022-12-01T18:44:23.441Z,102215.00
2022-12-01T18:46:54.059Z,102206.84
2022-12-01T18:49:22.001Z,102207.84
2022-12-01T18:51:49.758Z,102206.97
2022-12-01T18:54:18.264Z,102206.97
2022-12-01T18:56:46.095Z,102207.03
2022-12-01T18:59:16.830Z,102205.25
2022-12-01T19:01:46.554Z,102203.50
2022-12-01T19:04:16.938Z,102204.38
2022-12-01T19:06:46.150Z,102204.47
2022-12-01T19:09:16.438Z,102202.72
2022-12-01T19:11:44.626Z,102203.72
2022-12-01T19:14:16.543Z,102204.53
2022-12-01T19:16:44.790Z,102198.34
2022-12-01T19:19:12.999Z,102198.34
2022-12-01T19:21:44.608Z,102188.44
2022-12-01T19:24:16.283Z,102188.59
2022-12-01T19:26:44.179Z,102197.75
2022-12-01T19:29:12.134Z,102187.84
2022-12-01T19:31:40.057Z,102186.00
2022-12-01T19:34:08.094Z,102190.56
2022-12-01T19:36:36.018Z,102196.06
2022-12-01T19:39:07.752Z,102188.84
2022-12-01T19:41:38.501Z,102193.50
2022-12-01T19:44:06.726Z,102187.19
2022-12-01T19:46:34.798Z,102194.50
2022-12-01T19:49:03.294Z,102196.34
2022-12-01T19:51:34.935Z,102194.56
2022-12-01T19:54:05.633Z,102212.75
2022-12-01T19:56:33.750Z,102204.72
2022-12-01T19:59:01.800Z,102208.44
2022-12-01T20:01:30.268Z,102204.97
2022-12-01T20:03:58.105Z,102206.91
2022-12-01T20:06:27.748Z,102204.25
2022-12-01T20:08:56.803Z,102199.00
2022-12-01T20:11:26.391Z,102199.16
2022-12-01T20:13:54.621Z,102200.22
2022-12-01T20:16:25.070Z,102194.78
2022-12-01T20:18:54.987Z,102187.59
2022-12-01T20:21:24.639Z,102196.78
2022-12-01T20:23:57.695Z,102202.22
2022-12-01T20:26:30.400Z,102195.16
2022-12-01T20:29:02.109Z,102193.53
2022-12-01T20:31:32.132Z,102198.75
2022-12-01T20:34:02.572Z,102200.56
2022-12-01T20:36:30.422Z,102195.19
2022-12-01T20:38:58.197Z,102197.84
2022-12-01T20:41:27.792Z,102205.06
2022-12-01T20:43:55.746Z,102195.09
2022-12-01T20:46:23.664Z,102204.09
2022-12-01T20:48:51.576Z,102204.09
2022-12-01T20:51:20.201Z,102201.41
2022-12-01T20:54:12.442Z,102196.91
2022-12-01T20:56:37.386Z,102200.56
2022-12-01T20:59:05.610Z,102197.91
2022-12-01T21:01:33.597Z,102198.88
2022-12-01T21:04:01.717Z,102198.97
2022-12-01T21:06:30.093Z,102199.97
2022-12-01T21:08:57.897Z,102196.38
2022-12-01T21:11:42.414Z,102195.44
2022-12-01T21:14:16.734Z,102205.41
2022-12-01T21:16:48.275Z,102197.50
2022-12-01T21:19:22.919Z,102196.59
2022-12-01T21:21:50.811Z,102197.56
2022-12-01T21:24:22.094Z,102196.66
2022-12-01T21:26:52.038Z,102193.97
2022-12-01T21:29:24.801Z,102190.28
2022-12-01T21:31:54.742Z,102192.19
2022-12-01T21:34:24.341Z,102185.06
2022-12-01T21:36:54.471Z,102186.88
2022-12-01T21:39:24.712Z,102193.25
2022-12-01T21:41:55.958Z,102194.28
2022-12-01T21:44:32.843Z,102181.59
2022-12-01T21:47:15.680Z,102181.72
2022-12-01T21:49:44.521Z,102174.69
2022-12-01T21:52:17.209Z,102182.66
2022-12-01T21:54:45.216Z,102180.22
2022-12-01T21:57:30.511Z,102180.22
2022-12-01T22:00:24.370Z,102173.88
2022-12-01T22:02:54.353Z,102169.44
2022-12-01T22:05:29.797Z,102168.50
2022-12-01T22:08:02.192Z,102164.97
2022-12-01T22:10:52.932Z,102165.03
2022-12-01T22:13:24.524Z,102161.53
2022-12-01T22:15:54.813Z,102161.53
2022-12-01T22:18:25.307Z,102152.50
2022-12-01T22:20:53.805Z,102145.31
2022-12-01T22:23:27.358Z,102155.25
2022-12-01T22:25:55.215Z,102147.19
2022-12-01T22:28:25.483Z,102148.13
2022-12-01T22:30:56.101Z,102145.47
2022-12-01T22:33:25.487Z,102139.22
2022-12-01T22:35:54.013Z,102138.38
2022-12-01T22:38:35.041Z,102141.16
2022-12-01T22:41:06.655Z,102135.06
2022-12-01T22:43:47.357Z,102143.09
2022-12-01T22:46:28.219Z,102145.03
2022-12-01T22:48:58.152Z,102141.53
2022-12-01T22:51:28.881Z,102150.56
2022-12-01T22:54:00.980Z,102145.19
2022-12-01T22:56:32.916Z,102138.94
2022-12-01T22:59:00.817Z,102144.59
2022-12-01T23:01:31.760Z,102137.28
2022-12-01T23:04:15.904Z,102136.44
2022-12-01T23:06:59.895Z,102145.53
2022-12-01T23:09:32.742Z,102143.75
2022-12-01T23:12:14.794Z,102142.13
2022-12-01T23:14:45.697Z,102137.66
2022-12-01T23:17:19.671Z,102142.13
2022-12-01T23:19:47.575Z,102140.44
2022-12-01T23:22:16.829Z,102129.59
2022-12-01T23:24:45.105Z,102122.44
2022-12-01T23:27:13.046Z,102125.25
2022-12-01T23:29:40.906Z,102137.97
2022-12-01T23:32:08.697Z,102135.22
2022-12-01T23:34:38.119Z,102131.53
2022-12-01T23:37:21.702Z,102129.69
2022-12-01T23:39:50.432Z,102120.78
2022-12-01T23:42:18.374Z,102122.53
2022-12-01T23:44:46.406Z,102120.69
2022-12-01T23:47:18.999Z,102128.91
2022-12-01T23:49:51.643Z,102126.31
2022-12-01T23:52:21.262Z,102119.91
2022-12-01T23:54:49.794Z,102117.28
2022-12-01T23:57:22.521Z,102114.59
2022-12-01T23:59:54.359Z,102120.06
